sensor_id;sensor_type;location;lat;lon;timestamp;pressure;altitude;pressure_sealevel;temperature;humidity
9077;BME280;4574;51.072;17.174;2023-04-26T00:00:41;99773.28;;;6.57;96.24
9077;BME280;4574;51.072;17.174;2023-04-26T00:03:14;99767.16;;;6.47;96.92
9077;BME280;4574;51.072;17.174;2023-04-26T00:05:42;99770.47;;;6.49;97.22
9077;BME280;4574;51.072;17.174;2023-04-26T00:08:12;99768.81;;;6.48;97.23
9077;BME280;4574;51.072;17.174;2023-04-26T00:10:41;99774.78;;;6.50;96.35
9077;BME280;4574;51.072;17.174;2023-04-26T00:13:10;99775.31;;;6.44;96.73
9077;BME280;4574;51.072;17.174;2023-04-26T00:15:39;99774.78;;;6.50;96.63
9077;BME280;4574;51.072;17.174;2023-04-26T00:18:07;99770.47;;;6.49;96.44
9077;BME280;4574;51.072;17.174;2023-04-26T00:20:37;99775.19;;;6.45;96.36
9077;BME280;4574;51.072;17.174;2023-04-26T00:23:05;99774.34;;;6.45;96.27
9077;BME280;4574;51.072;17.174;2023-04-26T00:25:36;99778.19;;;6.41;96.34
9077;BME280;4574;51.072;17.174;2023-04-26T00:28:05;99780.00;;;6.40;96.81
9077;BME280;4574;51.072;17.174;2023-04-26T00:30:34;99774.06;;;6.48;96.43
9077;BME280;4574;51.072;17.174;2023-04-26T00:33:07;99778.88;;;6.43;96.15
9077;BME280;4574;51.072;17.174;2023-04-26T00:35:36;99783.84;;;6.36;96.89
9077;BME280;4574;51.072;17.174;2023-04-26T00:38:05;99777.19;;;6.32;97.15
9077;BME280;4574;51.072;17.174;2023-04-26T00:40:36;99779.69;;;6.34;96.40
9077;BME280;4574;51.072;17.174;2023-04-26T00:43:05;99791.47;;;6.39;96.49
9077;BME280;4574;51.072;17.174;2023-04-26T00:45:34;99794.81;;;6.41;96.57
9077;BME280;4574;51.072;17.174;2023-04-26T00:48:03;99789.50;;;6.32;96.81
9077;BME280;4574;51.072;17.174;2023-04-26T00:50:32;99788.41;;;6.34;96.62
9077;BME280;4574;51.072;17.174;2023-04-26T00:53:02;99788.78;;;6.30;96.67
9077;BME280;4574;51.072;17.174;2023-04-26T00:55:32;99807.72;;;6.24;97.04
9077;BME280;4574;51.072;17.174;2023-04-26T00:58:02;99802.72;;;6.21;97.24
9077;BME280;4574;51.072;17.174;2023-04-26T01:00:31;99801.56;;;6.14;97.71
9077;BME280;4574;51.072;17.174;2023-04-26T01:03:00;99796.56;;;6.11;98.09
9077;BME280;4574;51.072;17.174;2023-04-26T01:05:29;99798.38;;;6.10;98.53
9077;BME280;4574;51.072;17.174;2023-04-26T01:07:58;99807.78;;;6.13;97.74
9077;BME280;4574;51.072;17.174;2023-04-26T01:10:28;99803.03;;;6.07;98.01
9077;BME280;4574;51.072;17.174;2023-04-26T01:12:58;99802.50;;;5.92;99.27
9077;BME280;4574;51.072;17.174;2023-04-26T01:15:29;99801.19;;;5.98;98.84
9077;BME280;4574;51.072;17.174;2023-04-26T01:17:59;99809.06;;;5.98;98.68
9077;BME280;4574;51.072;17.174;2023-04-26T01:20:29;99813.34;;;5.99;98.26
9077;BME280;4574;51.072;17.174;2023-04-26T01:23:00;99814.19;;;5.99;98.86
9077;BME280;4574;51.072;17.174;2023-04-26T01:25:28;99816.13;;;5.97;98.48
9077;BME280;4574;51.072;17.174;2023-04-26T01:27:57;99822.19;;;5.98;98.50
9077;BME280;4574;51.072;17.174;2023-04-26T01:30:25;99815.78;;;5.91;99.09
9077;BME280;4574;51.072;17.174;2023-04-26T01:32:54;99821.28;;;5.88;99.62
9077;BME280;4574;51.072;17.174;2023-04-26T01:35:23;99829.53;;;5.83;99.87
9077;BME280;4574;51.072;17.174;2023-04-26T01:37:51;99824.44;;;5.82;99.54
9077;BME280;4574;51.072;17.174;2023-04-26T01:40:21;99826.69;;;5.75;99.98
9077;BME280;4574;51.072;17.174;2023-04-26T01:42:50;99827.13;;;5.60;100.00
9077;BME280;4574;51.072;17.174;2023-04-26T01:45:19;99824.03;;;5.55;100.00
9077;BME280;4574;51.072;17.174;2023-04-26T01:47:47;99831.00;;;5.45;100.00
9077;BME280;4574;51.072;17.174;2023-04-26T01:50:16;99831.47;;;5.39;100.00
9077;BME280;4574;51.072;17.174;2023-04-26T01:52:45;99826.84;;;5.31;100.00
9077;BME280;4574;51.072;17.174;2023-04-26T01:55:13;99828.88;;;5.28;100.00
9077;BME280;4574;51.072;17.174;2023-04-26T01:57:43;99827.69;;;5.32;100.00
9077;BME280;4574;51.072;17.174;2023-04-26T02:00:12;99818.50;;;5.26;100.00
9077;BME280;4574;51.072;17.174;2023-04-26T02:02:41;99824.38;;;5.19;100.00
9077;BME280;4574;51.072;17.174;2023-04-26T02:05:10;99827.56;;;5.22;100.00
9077;BME280;4574;51.072;17.174;2023-04-26T02:07:39;99833.03;;;5.30;100.00
9077;BME280;4574;51.072;17.174;2023-04-26T02:10:08;99836.50;;;5.31;100.00
9077;BME280;4574;51.072;17.174;2023-04-26T02:12:36;99835.56;;;5.32;100.00
9077;BME280;4574;51.072;17.174;2023-04-26T02:15:07;99827.22;;;5.27;100.00
9077;BME280;4574;51.072;17.174;2023-04-26T02:17:37;99832.94;;;5.32;100.00
9077;BME280;4574;51.072;17.174;2023-04-26T02:20:07;99835.09;;;5.27;100.00
9077;BME280;4574;51.072;17.174;2023-04-26T02:22:37;99835.66;;;5.30;100.00
9077;BME280;4574;51.072;17.174;2023-04-26T02:25:07;99834.25;;;5.26;100.00
9077;BME280;4574;51.072;17.174;2023-04-26T02:27:36;99830.56;;;5.29;100.00
9077;BME280;4574;51.072;17.174;2023-04-26T02:30:08;99825.09;;;5.21;100.00
9077;BME280;4574;51.072;17.174;2023-04-26T02:32:37;99829.13;;;5.25;100.00
9077;BME280;4574;51.072;17.174;2023-04-26T02:35:06;99828.19;;;5.26;100.00
9077;BME280;4574;51.072;17.174;2023-04-26T02:37:35;99833.19;;;5.29;100.00
9077;BME280;4574;51.072;17.174;2023-04-26T02:40:05;99836.16;;;5.24;100.00
9077;BME280;4574;51.072;17.174;2023-04-26T02:42:36;99838.44;;;5.18;100.00
9077;BME280;4574;51.072;17.174;2023-04-26T02:45:07;99830.44;;;5.20;100.00
9077;BME280;4574;51.072;17.174;2023-04-26T02:47:35;99833.66;;;5.23;100.00
9077;BME280;4574;51.072;17.174;2023-04-26T02:50:06;99828.66;;;5.20;100.00
9077;BME280;4574;51.072;17.174;2023-04-26T02:52:36;99840.84;;;5.21;100.00
9077;BME280;4574;51.072;17.174;2023-04-26T02:55:06;99838.22;;;5.21;100.00
9077;BME280;4574;51.072;17.174;2023-04-26T02:57:34;99838.22;;;5.21;100.00
9077;BME280;4574;51.072;17.174;2023-04-26T03:00:04;99843.09;;;5.15;100.00
9077;BME280;4574;51.072;17.174;2023-04-26T03:02:35;99838.44;;;5.18;100.00
9077;BME280;4574;51.072;17.174;2023-04-26T03:05:04;99832.25;;;5.19;100.00
9077;BME280;4574;51.072;17.174;2023-04-26T03:07:33;99839.41;;;5.17;100.00
9077;BME280;4574;51.072;17.174;2023-04-26T03:10:02;99845.47;;;5.18;100.00
9077;BME280;4574;51.072;17.174;2023-04-26T03:12:32;99854.78;;;5.22;100.00
9077;BME280;4574;51.072;17.174;2023-04-26T03:15:01;99852.16;;;5.22;100.00
9077;BME280;4574;51.072;17.174;2023-04-26T03:17:30;99860.97;;;5.21;100.00
9077;BME280;4574;51.072;17.174;2023-04-26T03:20:00;99864.44;;;5.21;100.00
9077;BME280;4574;51.072;17.174;2023-04-26T03:22:30;99860.13;;;5.09;100.00
9077;BME280;4574;51.072;17.174;2023-04-26T03:24:58;99862.03;;;5.07;100.00
9077;BME280;4574;51.072;17.174;2023-04-26T03:27:27;99859.81;;;5.03;100.00
9077;BME280;4574;51.072;17.174;2023-04-26T03:29:56;99870.41;;;5.01;100.00
9077;BME280;4574;51.072;17.174;2023-04-26T03:32:24;99862.06;;;4.96;100.00
9077;BME280;4574;51.072;17.174;2023-04-26T03:34:53;99868.41;;;4.94;100.00
9077;BME280;4574;51.072;17.174;2023-04-26T03:37:23;99867.78;;;4.79;100.00
9077;BME280;4574;51.072;17.174;2023-04-26T03:39:52;99861.25;;;4.74;100.00
9077;BME280;4574;51.072;17.174;2023-04-26T03:42:20;99866.84;;;4.80;100.00
9077;BME280;4574;51.072;17.174;2023-04-26T03:44:49;99877.31;;;4.80;100.00
9077;BME280;4574;51.072;17.174;2023-04-26T03:47:17;99879.94;;;4.80;100.00
9077;BME280;4574;51.072;17.174;2023-04-26T03:49:46;99880.66;;;4.82;100.00
9077;BME280;4574;51.072;17.174;2023-04-26T03:52:14;99883.75;;;4.87;100.00
9077;BME280;4574;51.072;17.174;2023-04-26T03:54:44;99875.41;;;4.82;100.00
9077;BME280;4574;51.072;17.174;2023-04-26T03:57:12;99873.75;;;4.81;100.00
9077;BME280;4574;51.072;17.174;2023-04-26T03:59:41;99878.50;;;4.87;100.00
9077;BME280;4574;51.072;17.174;2023-04-26T04:02:10;99888.28;;;4.85;100.00
9077;BME280;4574;51.072;17.174;2023-04-26T04:04:39;99888.28;;;4.85;100.00
9077;BME280;4574;51.072;17.174;2023-04-26T04:07:08;99889.47;;;4.81;100.00
9077;BME280;4574;51.072;17.174;2023-04-26T04:09:36;99889.72;;;4.89;100.00
9077;BME280;4574;51.072;17.174;2023-04-26T04:12:06;99907.34;;;4.76;100.00
9077;BME280;4574;51.072;17.174;2023-04-26T04:14:35;99900.44;;;4.75;100.00
9077;BME280;4574;51.072;17.174;2023-04-26T04:17:03;99907.25;;;4.78;100.00
9077;BME280;4574;51.072;17.174;2023-04-26T04:19:32;99901.88;;;4.79;100.00
9077;BME280;4574;51.072;17.174;2023-04-26T04:22:01;99910.91;;;4.75;100.00
9077;BME280;4574;51.072;17.174;2023-04-26T04:24:29;99920.47;;;4.76;100.00
9077;BME280;4574;51.072;17.174;2023-04-26T04:27:00;99916.88;;;4.77;100.00
9077;BME280;4574;51.072;17.174;2023-04-26T04:29:30;99899.25;;;4.68;100.00
9077;BME280;4574;51.072;17.174;2023-04-26T04:31:59;99926.19;;;4.81;100.00
9077;BME280;4574;51.072;17.174;2023-04-26T04:34:28;99919.66;;;4.87;100.00
9077;BME280;4574;51.072;17.174;2023-04-26T04:36:57;99916.53;;;4.82;100.00
9077;BME280;4574;51.072;17.174;2023-04-26T04:39:25;99928.34;;;4.98;100.00
9077;BME280;4574;51.072;17.174;2023-04-26T04:41:54;99913.44;;;4.99;100.00
9077;BME280;4574;51.072;17.174;2023-04-26T04:44:22;99926.44;;;5.00;100.00
9077;BME280;4574;51.072;17.174;2023-04-26T04:46:54;99929.78;;;5.02;100.00
9077;BME280;4574;51.072;17.174;2023-04-26T04:49:24;99931.44;;;5.03;100.00
9077;BME280;4574;51.072;17.174;2023-04-26T04:51:53;99944.44;;;5.05;100.00
9077;BME280;4574;51.072;17.174;2023-04-26T04:54:22;99932.28;;;5.04;100.00
9077;BME280;4574;51.072;17.174;2023-04-26T04:56:50;99938.34;;;5.04;100.00
9077;BME280;4574;51.072;17.174;2023-04-26T04:59:19;99941.44;;;5.09;100.00
9077;BME280;4574;51.072;17.174;2023-04-26T05:01:48;99933.59;;;5.09;100.00
9077;BME280;4574;51.072;17.174;2023-04-26T05:04:18;99932.41;;;5.13;100.00
9077;BME280;4574;51.072;17.174;2023-04-26T05:06:47;99944.81;;;5.11;100.00
9077;BME280;4574;51.072;17.174;2023-04-26T05:09:15;99943.97;;;5.11;100.00
9077;BME280;4574;51.072;17.174;2023-04-26T05:11:44;99947.06;;;5.16;100.00
9077;BME280;4574;51.072;17.174;2023-04-26T05:14:12;99950.16;;;5.21;100.00
9077;BME280;4574;51.072;17.174;2023-04-26T05:16:41;99952.44;;;5.25;100.00
9077;BME280;4574;51.072;17.174;2023-04-26T05:19:10;99943.97;;;5.32;100.00
9077;BME280;4574;51.072;17.174;2023-04-26T05:21:40;99952.19;;;5.39;100.00
9077;BME280;4574;51.072;17.174;2023-04-26T05:24:09;99945.53;;;5.35;100.00
9077;BME280;4574;51.072;17.174;2023-04-26T05:26:37;99963.88;;;5.46;100.00
9077;BME280;4574;51.072;17.174;2023-04-26T05:29:06;99958.97;;;5.52;100.00
9077;BME280;4574;51.072;17.174;2023-04-26T05:31:35;99966.59;;;5.55;100.00
9077;BME280;4574;51.072;17.174;2023-04-26T05:34:04;99958.38;;;5.60;100.00
9077;BME280;4574;51.072;17.174;2023-04-26T05:36:32;99970.06;;;5.67;100.00
9077;BME280;4574;51.072;17.174;2023-04-26T05:39:02;99971.09;;;5.75;100.00
9077;BME280;4574;51.072;17.174;2023-04-26T05:41:34;99966.56;;;5.77;100.00
9077;BME280;4574;51.072;17.174;2023-04-26T05:44:03;99975.06;;;5.81;100.00
9077;BME280;4574;51.072;17.174;2023-04-26T05:46:32;99962.28;;;5.87;100.00
9077;BME280;4574;51.072;17.174;2023-04-26T05:49:01;99972.44;;;5.92;100.00
9077;BME280;4574;51.072;17.174;2023-04-26T05:51:30;99965.25;;;5.94;100.00
9077;BME280;4574;51.072;17.174;2023-04-26T05:53:58;99967.38;;;6.00;100.00
9077;BME280;4574;51.072;17.174;2023-04-26T05:56:28;99973.81;;;6.07;100.00
9077;BME280;4574;51.072;17.174;2023-04-26T05:58:57;99978.97;;;6.08;100.00
9077;BME280;4574;51.072;17.174;2023-04-26T06:01:25;99994.34;;;6.13;100.00
9077;BME280;4574;51.072;17.174;2023-04-26T06:03:54;99982.28;;;6.10;100.00
9077;BME280;4574;51.072;17.174;2023-04-26T06:06:26;99984.44;;;6.16;100.00
9077;BME280;4574;51.072;17.174;2023-04-26T06:08:55;99983.56;;;6.16;100.00
9077;BME280;4574;51.072;17.174;2023-04-26T06:11:24;99976.41;;;6.18;100.00
9077;BME280;4574;51.072;17.174;2023-04-26T06:13:54;99979.47;;;6.23;100.00
9077;BME280;4574;51.072;17.174;2023-04-26T06:16:22;99994.50;;;6.32;100.00
9077;BME280;4574;51.072;17.174;2023-04-26T06:18:51;99987.53;;;6.42;100.00
9077;BME280;4574;51.072;17.174;2023-04-26T06:21:20;99985.56;;;6.55;100.00
9077;BME280;4574;51.072;17.174;2023-04-26T06:23:48;99982.16;;;6.63;100.00
9077;BME280;4574;51.072;17.174;2023-04-26T06:26:17;99993.13;;;6.68;100.00
9077;BME280;4574;51.072;17.174;2023-04-26T06:28:46;99997.13;;;6.63;98.85
9077;BME280;4574;51.072;17.174;2023-04-26T06:31:16;99984.78;;;6.63;98.00
9077;BME280;4574;51.072;17.174;2023-04-26T06:33:45;99997.22;;;6.61;98.16
9077;BME280;4574;51.072;17.174;2023-04-26T06:36:14;99987.09;;;6.77;99.66
9077;BME280;4574;51.072;17.174;2023-04-26T06:38:42;99997.31;;;6.91;98.75
9077;BME280;4574;51.072;17.174;2023-04-26T06:41:11;99991.66;;;6.96;98.90
9077;BME280;4574;51.072;17.174;2023-04-26T06:43:39;99990.06;;;7.04;99.04
9077;BME280;4574;51.072;17.174;2023-04-26T06:46:08;99992.44;;;7.07;98.28
9077;BME280;4574;51.072;17.174;2023-04-26T06:48:38;99985.59;;;6.95;95.93
9077;BME280;4574;51.072;17.174;2023-04-26T06:51:07;99988.28;;;6.84;95.35
9077;BME280;4574;51.072;17.174;2023-04-26T06:53:36;99989.50;;;6.80;94.73
9077;BME280;4574;51.072;17.174;2023-04-26T06:56:05;99992.44;;;6.87;94.93
9077;BME280;4574;51.072;17.174;2023-04-26T06:58:33;99995.53;;;6.92;94.92
9077;BME280;4574;51.072;17.174;2023-04-26T07:01:02;100000.66;;;6.93;93.47
9077;BME280;4574;51.072;17.174;2023-04-26T07:03:32;99988.50;;;7.02;94.38
9077;BME280;4574;51.072;17.174;2023-04-26T07:06:02;100002.56;;;7.12;94.38
9077;BME280;4574;51.072;17.174;2023-04-26T07:08:31;100000.53;;;7.25;95.26
9077;BME280;4574;51.072;17.174;2023-04-26T07:10:59;100004.22;;;7.13;93.37
9077;BME280;4574;51.072;17.174;2023-04-26T07:13:27;100001.28;;;7.06;94.16
9077;BME280;4574;51.072;17.174;2023-04-26T07:15:57;100008.94;;;7.09;94.10
9077;BME280;4574;51.072;17.174;2023-04-26T07:18:25;99995.81;;;7.19;94.89
9077;BME280;4574;51.072;17.174;2023-04-26T07:20:54;99997.09;;;7.24;95.62
9077;BME280;4574;51.072;17.174;2023-04-26T07:23:24;100007.88;;;7.21;93.45
9077;BME280;4574;51.072;17.174;2023-04-26T07:25:52;99992.91;;;7.22;92.07
9077;BME280;4574;51.072;17.174;2023-04-26T07:28:23;100016.59;;;7.42;93.36
9077;BME280;4574;51.072;17.174;2023-04-26T07:30:52;99992.63;;;7.45;89.34
9077;BME280;4574;51.072;17.174;2023-04-26T07:33:21;100008.59;;;7.53;88.46
9077;BME280;4574;51.072;17.174;2023-04-26T07:35:53;99999.19;;;7.60;89.73
9077;BME280;4574;51.072;17.174;2023-04-26T07:38:22;100015.31;;;7.76;88.95
9077;BME280;4574;51.072;17.174;2023-04-26T07:40:52;100009.41;;;7.84;87.81
9077;BME280;4574;51.072;17.174;2023-04-26T07:43:21;100002.34;;;7.93;87.48
9077;BME280;4574;51.072;17.174;2023-04-26T07:45:49;100007.91;;;8.00;87.07
9077;BME280;4574;51.072;17.174;2023-04-26T07:48:18;100001.50;;;7.93;87.55
9077;BME280;4574;51.072;17.174;2023-04-26T07:50:47;100000.41;;;7.95;88.10
9077;BME280;4574;51.072;17.174;2023-04-26T07:53:15;100012.63;;;8.06;88.84
9077;BME280;4574;51.072;17.174;2023-04-26T07:55:44;99999.56;;;7.86;83.35
9077;BME280;4574;51.072;17.174;2023-04-26T07:58:14;100016.81;;;8.08;84.18
9077;BME280;4574;51.072;17.174;2023-04-26T08:00:43;100019.16;;;8.11;82.27
9077;BME280;4574;51.072;17.174;2023-04-26T08:03:14;100013.75;;;8.13;83.54
9077;BME280;4574;51.072;17.174;2023-04-26T08:05:42;100015.13;;;8.07;84.48
9077;BME280;4574;51.072;17.174;2023-04-26T08:08:12;100021.22;;;7.98;84.90
9077;BME280;4574;51.072;17.174;2023-04-26T08:10:42;100022.91;;;8.09;84.70
9077;BME280;4574;51.072;17.174;2023-04-26T08:13:10;100019.63;;;8.26;83.43
9077;BME280;4574;51.072;17.174;2023-04-26T08:15:40;100021.84;;;8.40;79.55
9077;BME280;4574;51.072;17.174;2023-04-26T08:18:09;100021.03;;;8.49;77.96
9077;BME280;4574;51.072;17.174;2023-04-26T08:20:38;100028.41;;;8.74;77.57
9077;BME280;4574;51.072;17.174;2023-04-26T08:23:07;100026.59;;;8.84;76.34
9077;BME280;4574;51.072;17.174;2023-04-26T08:25:35;100023.13;;;8.93;74.35
9077;BME280;4574;51.072;17.174;2023-04-26T08:28:04;100036.91;;;8.68;75.61
9077;BME280;4574;51.072;17.174;2023-04-26T08:30:34;100027.16;;;8.49;76.61
9077;BME280;4574;51.072;17.174;2023-04-26T08:33:04;100039.41;;;8.60;79.91
9077;BME280;4574;51.072;17.174;2023-04-26T08:35:33;100043.94;;;8.48;78.73
9077;BME280;4574;51.072;17.174;2023-04-26T08:38:02;100034.94;;;8.51;76.26
9077;BME280;4574;51.072;17.174;2023-04-26T08:40:30;100038.84;;;8.66;75.67
9077;BME280;4574;51.072;17.174;2023-04-26T08:42:59;100042.41;;;8.93;76.42
9077;BME280;4574;51.072;17.174;2023-04-26T08:45:30;100035.19;;;8.95;73.66
9077;BME280;4574;51.072;17.174;2023-04-26T08:48:05;100036.88;;;8.87;74.49
9077;BME280;4574;51.072;17.174;2023-04-26T08:50:35;100021.06;;;8.68;74.88
9077;BME280;4574;51.072;17.174;2023-04-26T08:53:07;100040.22;;;8.70;75.94
9077;BME280;4574;51.072;17.174;2023-04-26T08:55:36;100047.44;;;8.68;77.51
9077;BME280;4574;51.072;17.174;2023-04-26T08:58:05;100042.97;;;8.49;79.31
9077;BME280;4574;51.072;17.174;2023-04-26T09:00:37;100046.31;;;8.51;79.18
9077;BME280;4574;51.072;17.174;2023-04-26T09:03:07;100047.03;;;8.82;78.71
9077;BME280;4574;51.072;17.174;2023-04-26T09:05:38;100042.38;;;9.22;77.28
9077;BME280;4574;51.072;17.174;2023-04-26T09:08:13;100043.47;;;9.28;73.91
9077;BME280;4574;51.072;17.174;2023-04-26T09:10:43;100039.63;;;9.14;73.61
9077;BME280;4574;51.072;17.174;2023-04-26T09:13:12;100049.63;;;9.10;78.22
9077;BME280;4574;51.072;17.174;2023-04-26T09:15:50;100042.28;;;8.95;79.01
9077;BME280;4574;51.072;17.174;2023-04-26T09:18:21;100051.88;;;8.96;79.77
9077;BME280;4574;51.072;17.174;2023-04-26T09:21:01;100039.34;;;9.17;81.13
9077;BME280;4574;51.072;17.174;2023-04-26T09:23:30;100044.25;;;9.48;75.96
9077;BME280;4574;51.072;17.174;2023-04-26T09:26:16;100040.81;;;9.74;75.03
9077;BME280;4574;51.072;17.174;2023-04-26T09:28:45;100025.06;;;9.82;75.30
9077;BME280;4574;51.072;17.174;2023-04-26T09:31:35;100042.47;;;9.75;75.42
9077;BME280;4574;51.072;17.174;2023-04-26T09:34:08;100062.78;;;9.38;78.66
9077;BME280;4574;51.072;17.174;2023-04-26T09:36:47;100055.78;;;8.92;82.90
9077;BME280;4574;51.072;17.174;2023-04-26T09:39:29;100066.75;;;8.78;85.15
9077;BME280;4574;51.072;17.174;2023-04-26T09:41:59;100058.97;;;8.86;84.34
9077;BME280;4574;51.072;17.174;2023-04-26T09:44:28;100051.72;;;8.97;84.83
9077;BME280;4574;51.072;17.174;2023-04-26T09:47:00;100057.25;;;9.23;83.34
9077;BME280;4574;51.072;17.174;2023-04-26T09:49:32;100045.47;;;9.53;78.52
9077;BME280;4574;51.072;17.174;2023-04-26T09:52:05;100036.31;;;9.84;79.04
9077;BME280;4574;51.072;17.174;2023-04-26T09:54:46;100033.00;;;10.09;75.52
9077;BME280;4574;51.072;17.174;2023-04-26T09:57:16;100037.38;;;10.01;74.48
9077;BME280;4574;51.072;17.174;2023-04-26T09:59:47;100030.72;;;9.87;73.36
9077;BME280;4574;51.072;17.174;2023-04-26T10:02:23;100027.69;;;9.82;70.98
9077;BME280;4574;51.072;17.174;2023-04-26T10:04:55;100025.06;;;10.09;71.86
9077;BME280;4574;51.072;17.174;2023-04-26T10:07:26;100039.28;;;10.08;71.18
9077;BME280;4574;51.072;17.174;2023-04-26T10:09:56;100037.38;;;9.91;73.91
9077;BME280;4574;51.072;17.174;2023-04-26T10:12:26;100032.75;;;9.76;75.20
9077;BME280;4574;51.072;17.174;2023-04-26T10:14:55;100031.03;;;9.84;74.52
9077;BME280;4574;51.072;17.174;2023-04-26T10:17:25;100039.91;;;9.93;72.77
9077;BME280;4574;51.072;17.174;2023-04-26T10:19:58;100036.03;;;9.87;71.93
9077;BME280;4574;51.072;17.174;2023-04-26T10:22:31;100039.34;;;9.89;73.38
9077;BME280;4574;51.072;17.174;2023-04-26T10:25:01;100034.00;;;10.08;76.18
9077;BME280;4574;51.072;17.174;2023-04-26T10:27:49;100038.97;;;10.11;75.18
9077;BME280;4574;51.072;17.174;2023-04-26T10:30:20;100036.25;;;10.30;73.68
9077;BME280;4574;51.072;17.174;2023-04-26T10:36:04;100046.91;;;10.38;73.31
9077;BME280;4574;51.072;17.174;2023-04-26T10:38:33;100048.50;;;10.31;71.57
9077;BME280;4574;51.072;17.174;2023-04-26T10:41:31;100047.97;;;10.45;72.18
9077;BME280;4574;51.072;17.174;2023-04-26T10:47:22;100053.88;;;10.74;65.31
9077;BME280;4574;51.072;17.174;2023-04-26T10:50:05;100042.91;;;10.52;66.84
9077;BME280;4574;51.072;17.174;2023-04-26T10:53:05;100058.09;;;10.32;68.64
9077;BME280;4574;51.072;17.174;2023-04-26T10:55:37;100064.34;;;10.04;70.76
9077;BME280;4574;51.072;17.174;2023-04-26T10:58:25;100067.69;;;9.70;74.67
9077;BME280;4574;51.072;17.174;2023-04-26T11:01:14;100054.97;;;9.46;76.74
9077;BME280;4574;51.072;17.174;2023-04-26T11:04:01;100047.03;;;9.46;75.82
9077;BME280;4574;51.072;17.174;2023-04-26T11:06:46;100043.25;;;9.58;74.26
9077;BME280;4574;51.072;17.174;2023-04-26T11:09:36;100051.00;;;10.06;75.41
9077;BME280;4574;51.072;17.174;2023-04-26T11:12:09;100041.31;;;10.41;74.29
9077;BME280;4574;51.072;17.174;2023-04-26T11:14:40;100043.16;;;10.58;73.62
9077;BME280;4574;51.072;17.174;2023-04-26T11:17:11;100048.94;;;10.62;71.35
9077;BME280;4574;51.072;17.174;2023-04-26T11:19:40;100049.03;;;10.52;68.46
9077;BME280;4574;51.072;17.174;2023-04-26T11:22:08;100052.44;;;10.62;70.04
9077;BME280;4574;51.072;17.174;2023-04-26T11:24:38;100041.03;;;10.79;67.84
9077;BME280;4574;51.072;17.174;2023-04-26T11:27:08;100047.75;;;10.91;68.53
9077;BME280;4574;51.072;17.174;2023-04-26T11:29:37;100042.38;;;10.65;66.28
9077;BME280;4574;51.072;17.174;2023-04-26T11:32:06;100048.66;;;10.64;68.18
9077;BME280;4574;51.072;17.174;2023-04-26T11:34:36;100056.66;;;10.38;69.40
9077;BME280;4574;51.072;17.174;2023-04-26T11:37:05;100058.84;;;10.15;69.03
9077;BME280;4574;51.072;17.174;2023-04-26T11:39:35;100051.53;;;10.09;70.73
9077;BME280;4574;51.072;17.174;2023-04-26T11:42:24;100048.19;;;10.07;68.36
9077;BME280;4574;51.072;17.174;2023-04-26T11:44:55;100045.72;;;9.96;67.33
9077;BME280;4574;51.072;17.174;2023-04-26T11:47:26;100049.78;;;10.27;67.55
9077;BME280;4574;51.072;17.174;2023-04-26T11:49:56;100057.88;;;10.61;66.53
9077;BME280;4574;51.072;17.174;2023-04-26T11:52:26;100053.66;;;10.85;64.38
9077;BME280;4574;51.072;17.174;2023-04-26T11:55:00;100068.53;;;10.68;67.24
9077;BME280;4574;51.072;17.174;2023-04-26T11:57:33;100050.25;;;10.40;65.57
9077;BME280;4574;51.072;17.174;2023-04-26T12:00:09;100061.81;;;10.39;66.40
9077;BME280;4574;51.072;17.174;2023-04-26T12:02:43;100054.84;;;10.56;66.83
9077;BME280;4574;51.072;17.174;2023-04-26T12:05:28;100054.84;;;10.90;67.25
9077;BME280;4574;51.072;17.174;2023-04-26T12:07:58;100046.28;;;11.14;67.17
9077;BME280;4574;51.072;17.174;2023-04-26T12:10:30;100041.63;;;11.59;63.38
9077;BME280;4574;51.072;17.174;2023-04-26T12:13:01;100031.50;;;11.88;59.46
9077;BME280;4574;51.072;17.174;2023-04-26T12:15:31;100057.63;;;12.08;60.84
9077;BME280;4574;51.072;17.174;2023-04-26T12:18:06;100041.91;;;11.81;60.00
9077;BME280;4574;51.072;17.174;2023-04-26T12:20:38;100038.00;;;11.93;60.34
9077;BME280;4574;51.072;17.174;2023-04-26T12:23:11;100038.91;;;12.09;59.37
9077;BME280;4574;51.072;17.174;2023-04-26T12:25:50;100035.59;;;12.15;57.69
9077;BME280;4574;51.072;17.174;2023-04-26T12:28:21;100043.94;;;12.28;58.74
9077;BME280;4574;51.072;17.174;2023-04-26T12:30:50;100033.00;;;12.31;57.18
9077;BME280;4574;51.072;17.174;2023-04-26T12:33:19;100049.38;;;12.27;54.87
9077;BME280;4574;51.072;17.174;2023-04-26T12:35:49;100054.38;;;12.30;56.42
9077;BME280;4574;51.072;17.174;2023-04-26T12:38:18;100049.13;;;12.62;55.53
9077;BME280;4574;51.072;17.174;2023-04-26T12:40:46;100048.16;;;12.71;53.28
9077;BME280;4574;51.072;17.174;2023-04-26T12:43:15;100041.03;;;12.79;54.37
9077;BME280;4574;51.072;17.174;2023-04-26T12:45:46;100048.91;;;12.23;55.33
9077;BME280;4574;51.072;17.174;2023-04-26T12:48:15;100049.88;;;12.14;56.27
9077;BME280;4574;51.072;17.174;2023-04-26T12:50:44;100060.66;;;12.21;59.33
9077;BME280;4574;51.072;17.174;2023-04-26T12:53:13;100052.53;;;12.22;60.04
9077;BME280;4574;51.072;17.174;2023-04-26T12:55:41;100066.88;;;12.53;59.69
9077;BME280;4574;51.072;17.174;2023-04-26T12:58:11;100053.13;;;12.58;59.54
9077;BME280;4574;51.072;17.174;2023-04-26T13:00:40;100062.28;;;12.79;59.17
9077;BME280;4574;51.072;17.174;2023-04-26T13:03:11;100067.59;;;12.79;59.52
9077;BME280;4574;51.072;17.174;2023-04-26T13:05:41;100072.34;;;11.95;59.51
9077;BME280;4574;51.072;17.174;2023-04-26T13:08:10;100081.84;;;11.80;63.07
9077;BME280;4574;51.072;17.174;2023-04-26T13:10:41;100085.88;;;11.41;64.67
9077;BME280;4574;51.072;17.174;2023-04-26T13:13:14;100077.63;;;11.18;67.06
9077;BME280;4574;51.072;17.174;2023-04-26T13:15:43;100078.19;;;11.30;67.67
9077;BME280;4574;51.072;17.174;2023-04-26T13:18:13;100072.09;;;11.55;67.26
9077;BME280;4574;51.072;17.174;2023-04-26T13:20:44;100068.13;;;11.84;65.44
9077;BME280;4574;51.072;17.174;2023-04-26T13:23:13;100065.91;;;12.05;64.27
9077;BME280;4574;51.072;17.174;2023-04-26T13:25:42;100064.19;;;12.29;62.45
9077;BME280;4574;51.072;17.174;2023-04-26T13:28:11;100055.94;;;12.56;62.74
9077;BME280;4574;51.072;17.174;2023-04-26T13:30:40;100069.91;;;12.74;59.00
9077;BME280;4574;51.072;17.174;2023-04-26T13:33:09;100070.63;;;12.92;56.00